Time;durP1;ratioP1;P1;durP2;ratioP2;P2;SDS_P1;SDS_P2;PMS_P1;PMS_P2;Temp;Humidity;BMP_temperature;BMP_pressure;BME280_temperature;BME280_humidity;BME280_pressure;Samples;Min_cycle;Max_cycle;Signal;HPM_P1;HPM_P2
2023/06/12 00:01:03;;;;;;;1.30;1.10;;;;;;;;;;5052740;28;20491;-88
2023/06/12 00:03:32;;;;;;;1.75;1.35;;;;;;;;;;5051532;28;20043;-90
2023/06/12 00:06:10;;;;;;;1.17;0.88;;;;;;;;;;5056269;28;20036;-89
2023/06/12 00:08:44;;;;;;;5.28;1.25;;;;;;;;;;5034140;28;20383;-89
2023/06/12 00:11:27;;;;;;;1.48;1.38;;;;;;;;;;5016023;28;20091;-88
2023/06/12 00:14:12;;;;;;;1.58;0.88;;;;;;;;;;5032997;28;20042;-91
2023/06/12 00:16:44;;;;;;;2.42;1.55;;;;;;;;;;5031072;28;20463;-87
2023/06/12 00:19:12;;;;;;;2.25;1.25;;;;;;;;;;5029985;28;20037;-90
2023/06/12 00:21:38;;;;;;;1.48;0.95;;;;;;;;;;5047549;28;20532;-89
2023/06/12 00:24:08;;;;;;;0.35;0.35;;;;;;;;;;5058058;28;20052;-88
2023/06/12 00:26:55;;;;;;;1.77;1.25;;;;;;;;;;5057867;28;20045;-91
2023/06/12 00:29:24;;;;;;;5.43;1.30;;;;;;;;;;5059817;28;20555;-90
2023/06/12 00:32:04;;;;;;;0.75;0.75;;;;;;;;;;5066315;28;20438;-90
2023/06/12 00:34:38;;;;;;;1.55;1.23;;;;;;;;;;5056241;28;20032;-90
2023/06/12 00:37:12;;;;;;;1.25;1.08;;;;;;;;;;5056889;28;20060;-92
2023/06/12 00:40:24;;;;;;;1.75;0.88;;;;;;;;;;5058172;28;20036;-91
2023/06/12 00:43:41;;;;;;;2.53;1.38;;;;;;;;;;5079665;28;20028;-89
2023/06/12 00:47:21;;;;;;;3.55;1.67;;;;;;;;;;5029174;28;20123;-90
2023/06/12 00:53:39;;;;;;;;;;;;;;;;;;;;;
2023/06/12 00:59:43;;;;;;;4.18;1.77;;;;;;;;;;5052204;28;20040;-92
2023/06/12 01:02:46;;;;;;;3.20;2.13;;;;;;;;;;5056609;28;20035;-90
2023/06/12 01:05:46;;;;;;;1.92;1.25;;;;;;;;;;5056322;28;20016;-92
2023/06/12 01:08:37;;;;;;;0.60;0.57;;;;;;;;;;5058763;28;20089;-87
2023/06/12 01:11:05;;;;;;;1.13;0.82;;;;;;;;;;5072078;28;20027;-87
2023/06/12 01:13:46;;;;;;;2.90;1.52;;;;;;;;;;5055402;28;20464;-87
2023/06/12 01:16:15;;;;;;;1.05;0.68;;;;;;;;;;5053632;28;20443;-89
2023/06/12 01:18:46;;;;;;;1.02;0.93;;;;;;;;;;5056330;28;20116;-91
2023/06/12 01:21:21;;;;;;;1.80;1.45;;;;;;;;;;5071871;28;20131;-91
2023/06/12 01:24:21;;;;;;;1.92;0.98;;;;;;;;;;5073813;28;20035;-88
2023/06/12 01:27:20;;;;;;;1.17;0.80;;;;;;;;;;5082434;28;20056;-87
2023/06/12 01:29:53;;;;;;;1.67;0.82;;;;;;;;;;5055435;28;20038;-89
2023/06/12 01:32:20;;;;;;;1.00;0.65;;;;;;;;;;5056426;28;20095;-88
2023/06/12 01:34:57;;;;;;;1.55;0.75;;;;;;;;;;5056179;28;20036;-88
2023/06/12 01:37:44;;;;;;;0.80;0.80;;;;;;;;;;5053883;28;20051;-86
2023/06/12 01:40:15;;;;;;;1.48;0.88;;;;;;;;;;5070020;28;20024;-87
2023/06/12 01:42:50;;;;;;;0.32;0.32;;;;;;;;;;5050841;28;20032;-86
2023/06/12 01:45:16;;;;;;;4.03;1.30;;;;;;;;;;5054260;28;20141;-86
2023/06/12 01:47:45;;;;;;;3.15;0.90;;;;;;;;;;5072406;28;20121;-87
2023/06/12 01:50:16;;;;;;;1.27;0.87;;;;;;;;;;5055776;28;20349;-87
2023/06/12 01:52:45;;;;;;;1.70;0.82;;;;;;;;;;5073329;28;20029;-87
2023/06/12 01:55:11;;;;;;;0.77;0.68;;;;;;;;;;5084988;28;20166;-88
2023/06/12 01:57:42;;;;;;;1.30;0.77;;;;;;;;;;5054900;28;20071;-90
2023/06/12 02:00:11;;;;;;;1.23;0.80;;;;;;;;;;5048819;28;20472;-90
2023/06/12 02:02:39;;;;;;;0.87;0.67;;;;;;;;;;5072490;28;20032;-88
2023/06/12 02:05:10;;;;;;;1.10;1.00;;;;;;;;;;5072733;28;20024;-88
2023/06/12 02:07:36;;;;;;;0.98;0.88;;;;;;;;;;5051149;28;20025;-89
2023/06/12 02:10:27;;;;;;;1.23;0.90;;;;;;;;;;5055112;28;20082;-90
2023/06/12 02:12:54;;;;;;;0.43;0.32;;;;;;;;;;5051867;28;20077;-89
2023/06/12 02:15:20;;;;;;;0.77;0.77;;;;;;;;;;5054493;28;20059;-89
2023/06/12 02:17:50;;;;;;;1.10;0.95;;;;;;;;;;5053365;28;20143;-89
2023/06/12 02:20:25;;;;;;;1.45;0.90;;;;;;;;;;5052804;28;20412;-91
2023/06/12 02:22:59;;;;;;;1.55;0.80;;;;;;;;;;5069793;28;20020;-89
2023/06/12 02:25:37;;;;;;;;;;;;;;;;;;;;;
2023/06/12 02:28:19;;;;;;;0.83;0.70;;;;;;;;;;5074256;28;20020;-89
2023/06/12 02:30:47;;;;;;;2.80;1.00;;;;;;;;;;5054694;28;20265;-90
2023/06/12 02:33:25;;;;;;;1.17;0.88;;;;;;;;;;5053977;28;20094;-87
2023/06/12 02:36:00;;;;;;;1.52;1.10;;;;;;;;;;5055106;28;20396;-88
2023/06/12 02:38:28;;;;;;;1.08;0.82;;;;;;;;;;5073829;28;20515;-89
2023/06/12 02:40:57;;;;;;;0.60;0.60;;;;;;;;;;5052982;28;20078;-88
2023/06/12 02:43:26;;;;;;;1.52;0.75;;;;;;;;;;5070471;28;20074;-87
2023/06/12 02:45:52;;;;;;;2.53;1.17;;;;;;;;;;5056334;28;20835;-88
2023/06/12 02:48:18;;;;;;;3.75;2.40;;;;;;;;;;5070929;28;20059;-88
2023/06/12 02:50:55;;;;;;;1.08;0.93;;;;;;;;;;5090424;28;20032;-87
2023/06/12 02:53:20;;;;;;;1.00;0.93;;;;;;;;;;5054219;28;20077;-86
2023/06/12 02:55:46;;;;;;;1.02;0.93;;;;;;;;;;5052675;28;20475;-86
2023/06/12 02:58:12;;;;;;;0.55;0.55;;;;;;;;;;5053556;28;20024;-87
2023/06/12 03:00:40;;;;;;;0.30;0.28;;;;;;;;;;5051937;28;20077;-88
2023/06/12 03:03:06;;;;;;;1.75;0.98;;;;;;;;;;5052135;28;20037;-88
2023/06/12 03:05:45;;;;;;;1.13;1.02;;;;;;;;;;5071915;28;20043;-88
2023/06/12 03:08:23;;;;;;;0.70;0.68;;;;;;;;;;5051856;28;20024;-88
2023/06/12 03:10:49;;;;;;;0.73;0.70;;;;;;;;;;5052793;28;20043;-89
2023/06/12 03:16:09;;;;;;;1.38;1.00;;;;;;;;;;5071866;28;20044;-88
2023/06/12 03:19:02;;;;;;;1.35;0.93;;;;;;;;;;5056943;28;20025;-87
2023/06/12 03:21:31;;;;;;;0.93;0.73;;;;;;;;;;5054039;28;20024;-88
2023/06/12 03:23:59;;;;;;;0.70;0.30;;;;;;;;;;5054045;28;20388;-88
2023/06/12 03:26:27;;;;;;;1.02;0.80;;;;;;;;;;5087581;28;20085;-88
2023/06/12 03:29:04;;;;;;;0.55;0.43;;;;;;;;;;5053323;28;20020;-89
2023/06/12 03:31:56;;;;;;;;;;;;;;;;;;;;;
2023/06/12 03:34:31;;;;;;;0.77;0.50;;;;;;;;;;5069939;28;20119;-88
2023/06/12 03:37:18;;;;;;;0.50;0.50;;;;;;;;;;5070964;28;20104;-89
2023/06/12 03:39:47;;;;;;;0.43;0.43;;;;;;;;;;5038990;28;20106;-91
2023/06/12 03:42:38;;;;;;;;;;;;;;;;;;;;;
2023/06/12 03:45:23;;;;;;;1.15;0.75;;;;;;;;;;5056052;28;20035;-89
2023/06/12 03:47:49;;;;;;;1.25;1.15;;;;;;;;;;5039106;28;20413;-89
2023/06/12 03:50:16;;;;;;;1.27;0.85;;;;;;;;;;5055309;28;20107;-88
2023/06/12 03:52:42;;;;;;;1.23;0.93;;;;;;;;;;5039151;28;20032;-91
2023/06/12 03:55:14;;;;;;;0.75;0.70;;;;;;;;;;5044707;28;20042;-87
2023/06/12 03:57:43;;;;;;;1.83;1.17;;;;;;;;;;5055312;28;20048;-91
2023/06/12 04:00:41;;;;;;;2.30;1.50;;;;;;;;;;5032007;28;20024;-93
2023/06/12 04:03:14;;;;;;;2.17;1.23;;;;;;;;;;5038580;28;20021;-88
2023/06/12 04:05:39;;;;;;;2.58;1.73;;;;;;;;;;5036922;28;20394;-90
2023/06/12 04:08:08;;;;;;;3.03;1.83;;;;;;;;;;5037906;28;20033;-90
2023/06/12 04:10:40;;;;;;;2.70;1.15;;;;;;;;;;5036723;28;20028;-89
2023/06/12 04:13:09;;;;;;;2.72;1.65;;;;;;;;;;5037851;28;20025;-90
2023/06/12 04:15:47;;;;;;;2.90;1.63;;;;;;;;;;5057608;28;20437;-90
2023/06/12 04:18:14;;;;;;;2.97;1.73;;;;;;;;;;5033746;28;20021;-89
2023/06/12 04:21:45;;;;;;;3.92;1.98;;;;;;;;;;5040163;28;20381;-91
2023/06/12 04:23:53;;;;;;;2.55;1.85;;;;;;;;;;5045895;28;20056;-86
2023/06/12 04:26:26;;;;;;;1.52;0.98;;;;;;;;;;5056045;28;20028;-86
2023/06/12 04:28:54;;;;;;;1.38;1.17;;;;;;;;;;5054059;28;20036;-86
2023/06/12 04:31:26;;;;;;;3.03;1.67;;;;;;;;;;5033895;28;20025;-86
2023/06/12 04:33:54;;;;;;;2.38;1.80;;;;;;;;;;5033950;28;20067;-85
2023/06/12 04:36:23;;;;;;;3.83;2.53;;;;;;;;;;5053701;28;20028;-85
2023/06/12 04:38:56;;;;;;;2.78;1.65;;;;;;;;;;5049972;28;20037;-85
2023/06/12 04:41:27;;;;;;;3.03;1.40;;;;;;;;;;5051056;28;20397;-85
2023/06/12 04:43:58;;;;;;;4.05;1.70;;;;;;;;;;5054232;28;20065;-86
2023/06/12 04:46:33;;;;;;;4.65;2.22;;;;;;;;;;5054669;28;20542;-87
2023/06/12 04:48:59;;;;;;;4.30;1.67;;;;;;;;;;5079262;28;20047;-87
2023/06/12 04:51:27;;;;;;;1.83;1.35;;;;;;;;;;5050263;28;20380;-86
2023/06/12 04:53:55;;;;;;;1.80;1.17;;;;;;;;;;5067847;28;20047;-86
2023/06/12 04:56:21;;;;;;;2.22;1.38;;;;;;;;;;5053945;28;20035;-85
2023/06/12 04:58:47;;;;;;;8.02;2.20;;;;;;;;;;5069260;28;20032;-86
2023/06/12 05:01:14;;;;;;;2.25;1.77;;;;;;;;;;5070942;28;20377;-84
2023/06/12 05:03:41;;;;;;;2.30;1.77;;;;;;;;;;5070679;28;20394;-85
2023/06/12 05:06:07;;;;;;;5.30;2.70;;;;;;;;;;5052408;28;20491;-86
2023/06/12 05:08:33;;;;;;;2.78;1.92;;;;;;;;;;5071444;28;20135;-84
2023/06/12 05:10:58;;;;;;;4.40;2.10;;;;;;;;;;5067916;28;20025;-86
2023/06/12 05:13:24;;;;;;;4.72;3.28;;;;;;;;;;5069651;28;20028;-84
2023/06/12 05:15:50;;;;;;;4.43;2.05;;;;;;;;;;5070514;28;20025;-85
2023/06/12 05:18:15;;;;;;;3.50;2.08;;;;;;;;;;5069441;28;20035;-85
2023/06/12 05:20:41;;;;;;;3.90;1.98;;;;;;;;;;5070116;28;20473;-84
2023/06/12 05:23:07;;;;;;;2.75;1.85;;;;;;;;;;5070821;28;20071;-86
2023/06/12 05:25:33;;;;;;;4.03;2.95;;;;;;;;;;5069105;28;20036;-87
2023/06/12 05:27:58;;;;;;;5.40;1.92;;;;;;;;;;5071261;28;20024;-85
2023/06/12 05:30:23;;;;;;;2.90;2.38;;;;;;;;;;5069006;28;20028;-87
2023/06/12 05:32:50;;;;;;;5.20;2.45;;;;;;;;;;5068954;28;20032;-90
2023/06/12 05:35:15;;;;;;;4.22;2.30;;;;;;;;;;5069358;28;20498;-84
2023/06/12 05:37:41;;;;;;;3.35;2.42;;;;;;;;;;5032309;28;1195045;-84
2023/06/12 05:40:09;;;;;;;2.25;1.75;;;;;;;;;;5069757;28;20036;-82
2023/06/12 05:42:35;;;;;;;3.83;2.35;;;;;;;;;;5053738;28;20078;-84
2023/06/12 05:45:00;;;;;;;5.32;3.08;;;;;;;;;;5071812;28;20028;-84
2023/06/12 05:47:27;;;;;;;2.38;1.50;;;;;;;;;;5053329;28;20044;-85
2023/06/12 05:49:52;;;;;;;3.47;2.40;;;;;;;;;;5067418;28;20058;-85
2023/06/12 05:52:18;;;;;;;7.85;2.25;;;;;;;;;;5070485;28;20032;-85
2023/06/12 05:54:43;;;;;;;4.25;2.13;;;;;;;;;;5065852;28;20059;-85
2023/06/12 05:57:11;;;;;;;2.05;1.85;;;;;;;;;;5068944;28;20480;-85
2023/06/12 05:59:36;;;;;;;3.67;2.38;;;;;;;;;;5070894;28;20059;-88
2023/06/12 06:02:02;;;;;;;4.93;2.88;;;;;;;;;;5068867;28;20067;-88
2023/06/12 06:04:28;;;;;;;2.45;1.65;;;;;;;;;;5052909;28;20995;-88
2023/06/12 06:06:53;;;;;;;4.72;2.22;;;;;;;;;;5052698;28;20063;-88
2023/06/12 06:09:20;;;;;;;3.80;2.78;;;;;;;;;;5051923;28;20028;-88
2023/06/12 06:11:45;;;;;;;3.45;2.78;;;;;;;;;;5070740;28;20141;-88
2023/06/12 06:14:11;;;;;;;3.58;2.60;;;;;;;;;;5060287;28;20200;-88
2023/06/12 06:16:36;;;;;;;4.13;2.42;;;;;;;;;;5068315;28;20385;-87
2023/06/12 06:19:02;;;;;;;2.85;1.85;;;;;;;;;;5071423;28;20028;-89
2023/06/12 06:21:30;;;;;;;3.80;2.35;;;;;;;;;;5071718;28;20024;-90
2023/06/12 06:23:56;;;;;;;3.33;2.00;;;;;;;;;;5070499;28;20081;-87
2023/06/12 06:26:21;;;;;;;2.95;2.63;;;;;;;;;;5071839;28;20024;-89
2023/06/12 06:28:47;;;;;;;4.40;3.22;;;;;;;;;;5071458;28;20020;-90
2023/06/12 06:31:13;;;;;;;5.32;1.92;;;;;;;;;;5071157;28;20017;-88
2023/06/12 06:33:38;;;;;;;2.53;1.75;;;;;;;;;;5052788;28;20032;-88
2023/06/12 06:36:04;;;;;;;4.40;3.13;;;;;;;;;;5065088;28;20062;-90
2023/06/12 06:38:30;;;;;;;3.05;2.05;;;;;;;;;;5055488;28;20056;-91
2023/06/12 06:40:55;;;;;;;2.35;1.77;;;;;;;;;;5071848;28;20028;-88
2023/06/12 06:43:21;;;;;;;2.88;2.30;;;;;;;;;;5070956;28;20103;-89
2023/06/12 06:45:46;;;;;;;5.53;2.50;;;;;;;;;;5070940;28;20028;-86
2023/06/12 06:48:13;;;;;;;2.83;2.35;;;;;;;;;;5070645;28;20032;-88
2023/06/12 06:50:39;;;;;;;2.28;1.60;;;;;;;;;;5064597;28;20067;-87
2023/06/12 06:53:04;;;;;;;2.80;1.88;;;;;;;;;;5052287;28;20439;-88
2023/06/12 06:55:30;;;;;;;2.63;1.95;;;;;;;;;;5051514;28;20031;-88
2023/06/12 06:57:56;;;;;;;3.28;1.52;;;;;;;;;;5052666;28;20385;-89
2023/06/12 07:00:22;;;;;;;4.10;1.95;;;;;;;;;;5070636;28;20040;-87
2023/06/12 07:02:48;;;;;;;1.27;1.13;;;;;;;;;;5066599;28;20074;-86
2023/06/12 07:05:14;;;;;;;1.80;1.20;;;;;;;;;;5070605;28;20032;-85
2023/06/12 07:07:40;;;;;;;3.58;1.98;;;;;;;;;;5067571;28;20028;-86
2023/06/12 07:10:07;;;;;;;4.15;2.30;;;;;;;;;;5067292;28;20077;-87
2023/06/12 07:12:33;;;;;;;2.50;1.27;;;;;;;;;;5047443;28;20035;-88
2023/06/12 07:14:59;;;;;;;1.27;1.17;;;;;;;;;;5063618;28;20032;-86
2023/06/12 07:17:25;;;;;;;2.42;1.35;;;;;;;;;;5054182;28;20073;-86
2023/06/12 07:19:50;;;;;;;2.15;1.33;;;;;;;;;;5066476;28;20492;-88
2023/06/12 07:22:16;;;;;;;1.65;1.42;;;;;;;;;;5068613;28;20488;-86
2023/06/12 07:24:41;;;;;;;2.30;1.77;;;;;;;;;;5052771;28;20056;-86
2023/06/12 07:27:07;;;;;;;1.30;1.00;;;;;;;;;;5067689;28;20064;-85
2023/06/12 07:29:32;;;;;;;1.63;0.98;;;;;;;;;;5068193;28;20559;-87
2023/06/12 07:31:58;;;;;;;1.25;1.02;;;;;;;;;;5070521;28;20396;-88
2023/06/12 07:34:23;;;;;;;3.00;1.27;;;;;;;;;;5070496;28;20032;-85
2023/06/12 07:36:49;;;;;;;2.00;1.30;;;;;;;;;;5068147;28;20166;-90
2023/06/12 07:39:14;;;;;;;2.45;1.50;;;;;;;;;;5057263;28;20049;-88
2023/06/12 07:41:42;;;;;;;4.15;1.20;;;;;;;;;;5048159;28;20040;-91
2023/06/12 07:44:12;;;;;;;2.78;1.88;;;;;;;;;;5053605;28;20107;-89
2023/06/12 07:46:38;;;;;;;1.88;1.17;;;;;;;;;;5047243;28;20033;-86
2023/06/12 07:49:04;;;;;;;2.22;1.55;;;;;;;;;;5068665;28;20434;-90
2023/06/12 07:51:29;;;;;;;1.67;1.17;;;;;;;;;;5054985;28;20033;-87
2023/06/12 07:53:55;;;;;;;2.50;1.35;;;;;;;;;;5037231;28;20476;-88
2023/06/12 07:56:20;;;;;;;4.35;1.75;;;;;;;;;;5056395;28;20052;-90
2023/06/12 07:58:46;;;;;;;1.48;1.20;;;;;;;;;;5040508;28;20074;-89
2023/06/12 08:01:13;;;;;;;1.77;1.13;;;;;;;;;;5042739;28;20056;-87
2023/06/12 08:03:39;;;;;;;3.17;1.20;;;;;;;;;;5040860;28;20469;-87
2023/06/12 08:06:12;;;;;;;3.15;1.20;;;;;;;;;;5060156;28;20040;-88
2023/06/12 08:08:41;;;;;;;2.60;0.95;;;;;;;;;;5041493;28;20029;-85
2023/06/12 08:11:07;;;;;;;6.45;2.08;;;;;;;;;;5055206;28;20083;-88
2023/06/12 08:13:32;;;;;;;10.50;2.17;;;;;;;;;;5052353;28;20488;-86
2023/06/12 08:15:58;;;;;;;5.38;1.10;;;;;;;;;;5044150;28;20028;-87
2023/06/12 08:18:23;;;;;;;1.33;0.70;;;;;;;;;;5040166;28;20044;-88
2023/06/12 08:20:50;;;;;;;1.58;1.15;;;;;;;;;;5031235;28;20029;-88
2023/06/12 08:23:16;;;;;;;1.90;0.93;;;;;;;;;;5061023;28;20021;-88
2023/06/12 08:25:41;;;;;;;2.10;1.55;;;;;;;;;;5047174;28;20040;-87
2023/06/12 08:28:07;;;;;;;2.67;1.33;;;;;;;;;;5053204;28;20116;-86
2023/06/12 08:30:32;;;;;;;1.23;1.02;;;;;;;;;;5060837;28;20052;-87
2023/06/12 08:32:58;;;;;;;2.15;1.67;;;;;;;;;;5061443;28;20025;-86
2023/06/12 08:35:23;;;;;;;1.90;1.20;;;;;;;;;;5061189;28;20040;-88
2023/06/12 08:37:49;;;;;;;1.17;1.08;;;;;;;;;;5065203;28;20025;-88
2023/06/12 08:40:15;;;;;;;1.70;1.05;;;;;;;;;;5063115;28;20025;-85
2023/06/12 08:42:46;;;;;;;1.25;1.05;;;;;;;;;;5065153;28;20028;-87
2023/06/12 08:45:16;;;;;;;1.92;0.80;;;;;;;;;;5059268;28;20599;-86
2023/06/12 08:47:46;;;;;;;1.55;0.90;;;;;;;;;;5066064;28;20028;-85
2023/06/12 08:50:11;;;;;;;1.23;0.85;;;;;;;;;;5059194;28;20380;-85
2023/06/12 08:52:38;;;;;;;2.25;1.15;;;;;;;;;;5044446;28;20057;-84
2023/06/12 08:55:09;;;;;;;0.60;0.60;;;;;;;;;;5059478;28;20537;-86
2023/06/12 08:57:38;;;;;;;1.98;0.95;;;;;;;;;;5055859;28;20402;-86
2023/06/12 09:00:11;;;;;;;0.32;0.32;;;;;;;;;;5054692;28;20028;-88
2023/06/12 09:02:49;;;;;;;1.98;0.82;;;;;;;;;;5056939;28;20040;-85
2023/06/12 09:05:21;;;;;;;0.70;0.70;;;;;;;;;;5061930;28;20021;-87
2023/06/12 09:07:47;;;;;;;1.75;1.35;;;;;;;;;;5038264;28;20795;-84
2023/06/12 09:10:14;;;;;;;1.65;0.57;;;;;;;;;;5068244;28;20036;-86
2023/06/12 09:12:43;;;;;;;0.68;0.68;;;;;;;;;;5040521;28;20480;-86
2023/06/12 09:15:09;;;;;;;1.73;1.13;;;;;;;;;;5035948;28;20025;-85
2023/06/12 09:17:37;;;;;;;3.03;0.85;;;;;;;;;;5059654;28;20021;-83
2023/06/12 09:20:04;;;;;;;2.47;1.55;;;;;;;;;;5051003;28;20369;-83
2023/06/12 09:22:30;;;;;;;2.28;1.00;;;;;;;;;;5056965;28;20052;-83
2023/06/12 09:24:57;;;;;;;1.55;0.70;;;;;;;;;;5069213;28;20060;-84
2023/06/12 09:27:22;;;;;;;2.15;1.23;;;;;;;;;;5054712;28;20059;-85
2023/06/12 09:29:48;;;;;;;0.40;0.40;;;;;;;;;;5051483;28;20028;-85
2023/06/12 09:32:14;;;;;;;1.15;0.70;;;;;;;;;;5062144;28;20548;-84
2023/06/12 09:34:48;;;;;;;1.23;0.80;;;;;;;;;;5059207;28;20029;-86
2023/06/12 09:37:15;;;;;;;1.35;1.17;;;;;;;;;;5054037;28;20021;-82
2023/06/12 09:39:41;;;;;;;1.45;1.08;;;;;;;;;;5048245;28;20118;-85
2023/06/12 09:42:18;;;;;;;2.28;1.60;;;;;;;;;;5053054;28;20028;-84
2023/06/12 09:44:44;;;;;;;0.45;0.45;;;;;;;;;;5070875;28;20435;-84
2023/06/12 09:47:12;;;;;;;0.90;0.70;;;;;;;;;;5071628;28;20060;-82
2023/06/12 09:49:38;;;;;;;0.70;0.55;;;;;;;;;;5064062;28;20040;-83
2023/06/12 09:52:05;;;;;;;1.15;1.05;;;;;;;;;;5073400;28;20419;-83
2023/06/12 09:54:32;;;;;;;0.88;0.80;;;;;;;;;;5071457;28;20020;-83
2023/06/12 09:57:08;;;;;;;1.17;1.08;;;;;;;;;;5071712;28;20475;-84
2023/06/12 09:59:36;;;;;;;0.90;0.60;;;;;;;;;;5052190;28;20086;-81
2023/06/12 10:02:09;;;;;;;1.50;0.93;;;;;;;;;;5071245;28;20071;-85
2023/06/12 10:04:59;;;;;;;0.90;0.57;;;;;;;;;;5049257;28;20047;-84
2023/06/12 10:07:29;;;;;;;1.20;0.93;;;;;;;;;;5050767;28;20492;-84
2023/06/12 10:09:56;;;;;;;0.75;0.65;;;;;;;;;;5071174;28;20028;-83
2023/06/12 10:12:25;;;;;;;1.58;0.73;;;;;;;;;;5069797;28;20054;-84
2023/06/12 10:14:52;;;;;;;1.65;1.30;;;;;;;;;;5052226;28;20033;-82
2023/06/12 10:17:25;;;;;;;1.52;1.08;;;;;;;;;;5052833;28;20020;-84
2023/06/12 10:19:56;;;;;;;1.65;1.27;;;;;;;;;;5066638;28;20028;-84
2023/06/12 10:22:31;;;;;;;0.70;0.65;;;;;;;;;;5069667;28;20457;-84
2023/06/12 10:24:58;;;;;;;2.53;1.15;;;;;;;;;;5066452;28;20442;-84
2023/06/12 10:27:27;;;;;;;1.60;1.15;;;;;;;;;;5053220;28;20053;-81
2023/06/12 10:30:19;;;;;;;0.68;0.68;;;;;;;;;;5052683;28;20054;-85
2023/06/12 10:32:46;;;;;;;1.75;1.17;;;;;;;;;;5066533;28;20040;-82
2023/06/12 10:35:36;;;;;;;2.40;0.90;;;;;;;;;;5050803;28;20473;-84
2023/06/12 10:38:20;;;;;;;1.63;1.15;;;;;;;;;;5067906;28;20110;-87
2023/06/12 10:40:55;;;;;;;1.55;1.38;;;;;;;;;;5048293;28;20105;-85
2023/06/12 10:43:24;;;;;;;1.77;1.17;;;;;;;;;;5067591;28;20075;-84
2023/06/12 10:45:58;;;;;;;1.25;0.40;;;;;;;;;;5065794;28;20027;-84
2023/06/12 10:48:24;;;;;;;7.63;1.23;;;;;;;;;;5072056;28;20112;-86
2023/06/12 10:50:57;;;;;;;1.15;0.57;;;;;;;;;;5054013;28;20114;-88
2023/06/12 10:53:31;;;;;;;0.35;0.35;;;;;;;;;;5048930;28;20035;-85
2023/06/12 10:56:08;;;;;;;0.73;0.60;;;;;;;;;;5052664;28;20040;-84
2023/06/12 10:58:41;;;;;;;1.10;0.80;;;;;;;;;;5048910;28;20074;-84
2023/06/12 11:01:14;;;;;;;0.80;0.60;;;;;;;;;;5069453;28;20503;-86
2023/06/12 11:03:44;;;;;;;1.05;0.95;;;;;;;;;;5052924;28;20024;-88
2023/06/12 11:06:13;;;;;;;1.00;0.90;;;;;;;;;;5068199;28;20518;-86
2023/06/12 11:08:43;;;;;;;2.57;1.20;;;;;;;;;;5069024;28;20043;-87
2023/06/12 11:11:10;;;;;;;1.83;1.33;;;;;;;;;;5067927;28;20531;-87
2023/06/12 11:13:39;;;;;;;1.48;0.90;;;;;;;;;;5071574;28;20028;-89
2023/06/12 11:16:04;;;;;;;1.13;0.88;;;;;;;;;;5070930;28;20026;-84
2023/06/12 11:18:30;;;;;;;1.55;1.45;;;;;;;;;;5069969;28;20024;-87
2023/06/12 11:20:56;;;;;;;0.95;0.93;;;;;;;;;;5070566;28;20025;-84
2023/06/12 11:23:24;;;;;;;1.73;1.20;;;;;;;;;;5052692;28;20388;-86
2023/06/12 11:25:52;;;;;;;1.73;1.25;;;;;;;;;;5065961;28;20028;-84
2023/06/12 11:28:19;;;;;;;0.75;0.70;;;;;;;;;;5070659;28;20028;-85
2023/06/12 11:30:49;;;;;;;2.25;0.93;;;;;;;;;;5069987;28;20480;-84
2023/06/12 11:33:15;;;;;;;1.77;1.23;;;;;;;;;;5069272;28;20095;-84
2023/06/12 11:35:45;;;;;;;0.82;0.73;;;;;;;;;;5069699;28;20044;-85
2023/06/12 11:38:21;;;;;;;0.90;0.82;;;;;;;;;;5070017;28;20040;-84
2023/06/12 11:40:49;;;;;;;2.95;1.45;;;;;;;;;;5063835;28;20032;-86
2023/06/12 11:43:19;;;;;;;1.00;0.90;;;;;;;;;;5054465;28;20057;-85
2023/06/12 11:45:45;;;;;;;1.38;1.17;;;;;;;;;;5057589;28;20024;-84
2023/06/12 11:48:16;;;;;;;1.55;1.05;;;;;;;;;;5061546;28;20082;-86
2023/06/12 11:50:46;;;;;;;1.38;0.90;;;;;;;;;;5046932;28;20493;-86
2023/06/12 11:53:12;;;;;;;1.35;0.70;;;;;;;;;;5059084;28;20043;-85
2023/06/12 11:55:38;;;;;;;0.85;0.63;;;;;;;;;;5058178;28;20031;-83
2023/06/12 11:58:04;;;;;;;0.60;0.50;;;;;;;;;;5059779;28;20377;-85
2023/06/12 12:00:33;;;;;;;1.08;0.90;;;;;;;;;;5055228;28;20384;-84
2023/06/12 12:03:02;;;;;;;1.08;0.57;;;;;;;;;;5054978;28;20033;-86
2023/06/12 12:05:35;;;;;;;0.88;0.68;;;;;;;;;;5040347;28;20040;-86
2023/06/12 12:08:04;;;;;;;0.63;0.60;;;;;;;;;;5057859;28;20060;-89
2023/06/12 12:10:37;;;;;;;1.23;1.05;;;;;;;;;;5061827;28;20036;-87
2023/06/12 12:13:03;;;;;;;0.80;0.80;;;;;;;;;;5063061;28;20113;-87
2023/06/12 12:15:31;;;;;;;1.33;0.90;;;;;;;;;;5053960;28;20017;-88
2023/06/12 12:17:57;;;;;;;0.40;0.38;;;;;;;;;;5066377;28;20484;-85
2023/06/12 12:20:25;;;;;;;1.48;0.73;;;;;;;;;;5057492;28;20461;-87
2023/06/12 12:22:59;;;;;;;0.63;0.63;;;;;;;;;;5043314;28;20029;-86
2023/06/12 12:25:26;;;;;;;0.80;0.80;;;;;;;;;;5061577;28;20033;-87
2023/06/12 12:27:53;;;;;;;1.33;0.85;;;;;;;;;;5059848;28;20056;-88
2023/06/12 12:30:20;;;;;;;1.10;1.00;;;;;;;;;;5044529;28;20029;-85
2023/06/12 12:32:56;;;;;;;1.05;0.63;;;;;;;;;;5039972;28;20383;-88
2023/06/12 12:35:24;;;;;;;1.10;1.00;;;;;;;;;;5040870;28;20032;-90
2023/06/12 12:37:51;;;;;;;1.00;0.90;;;;;;;;;;5061586;28;20104;-88
2023/06/12 12:40:16;;;;;;;0.95;0.88;;;;;;;;;;5072198;28;20051;-87
2023/06/12 12:42:49;;;;;;;0.73;0.73;;;;;;;;;;5071335;28;21443;-86
2023/06/12 12:45:16;;;;;;;0.82;0.82;;;;;;;;;;5047861;28;20384;-87
2023/06/12 12:47:48;;;;;;;1.35;0.93;;;;;;;;;;5054315;28;20032;-87
2023/06/12 12:50:15;;;;;;;2.60;1.67;;;;;;;;;;5071433;28;20495;-85
2023/06/12 12:52:41;;;;;;;1.17;0.95;;;;;;;;;;5066975;28;20082;-83
2023/06/12 12:55:07;;;;;;;1.00;0.90;;;;;;;;;;5071738;28;20081;-89
2023/06/12 12:57:37;;;;;;;1.00;0.80;;;;;;;;;;5072452;28;20047;-85
2023/06/12 13:00:05;;;;;;;;;;;;;;;;;;5048452;28;20033;-84
2023/06/12 13:02:31;;;;;;;0.95;0.77;;;;;;;;;;5076044;28;19918;-84
2023/06/12 13:04:56;;;;;;;1.08;0.90;;;;;;;;;;5071966;28;20460;-85
2023/06/12 13:07:22;;;;;;;0.75;0.70;;;;;;;;;;5069879;28;20032;-85
2023/06/12 13:09:48;;;;;;;1.55;1.05;;;;;;;;;;5072596;28;20074;-82
2023/06/12 13:12:13;;;;;;;1.33;0.90;;;;;;;;;;5052635;28;20024;-83
2023/06/12 13:14:38;;;;;;;1.85;1.33;;;;;;;;;;5064237;28;20115;-83
2023/06/12 13:17:05;;;;;;;1.67;1.40;;;;;;;;;;5064248;28;20033;-84
2023/06/12 13:19:31;;;;;;;1.40;0.95;;;;;;;;;;5068273;28;20377;-89
2023/06/12 13:21:56;;;;;;;1.40;1.00;;;;;;;;;;5065248;28;20027;-86
2023/06/12 13:24:22;;;;;;;1.38;0.90;;;;;;;;;;5053063;28;20376;-84
2023/06/12 13:26:47;;;;;;;1.05;0.93;;;;;;;;;;5070207;28;20043;-85
2023/06/12 13:29:13;;;;;;;1.45;1.10;;;;;;;;;;5054815;28;20519;-85
2023/06/12 13:31:38;;;;;;;1.52;1.23;;;;;;;;;;5055426;28;20035;-85
2023/06/12 13:34:05;;;;;;;1.83;1.63;;;;;;;;;;5073168;28;20027;-85
2023/06/12 13:36:31;;;;;;;1.45;1.00;;;;;;;;;;5073343;28;20488;-85
2023/06/12 13:38:57;;;;;;;2.55;1.55;;;;;;;;;;5052565;28;20055;-85
2023/06/12 13:41:23;;;;;;;1.70;1.50;;;;;;;;;;5057275;28;20028;-84
2023/06/12 13:43:49;;;;;;;3.15;1.55;;;;;;;;;;5050707;28;20036;-84
2023/06/12 13:46:15;;;;;;;1.65;1.00;;;;;;;;;;5050872;28;20043;-83
2023/06/12 13:48:40;;;;;;;0.52;0.50;;;;;;;;;;5068418;28;20032;-84
2023/06/12 13:51:05;;;;;;;2.65;1.70;;;;;;;;;;5058502;28;20030;-86
2023/06/12 13:53:31;;;;;;;0.95;0.85;;;;;;;;;;5060868;28;20473;-85
2023/06/12 13:55:56;;;;;;;1.13;0.90;;;;;;;;;;5053321;28;20032;-85
2023/06/12 13:58:22;;;;;;;1.92;0.90;;;;;;;;;;5071612;28;20100;-83
2023/06/12 14:00:47;;;;;;;1.23;1.13;;;;;;;;;;5071083;28;20083;-84
2023/06/12 14:03:13;;;;;;;1.20;0.93;;;;;;;;;;5057887;28;20470;-82
2023/06/12 14:05:38;;;;;;;1.70;1.38;;;;;;;;;;5061922;28;20027;-85
2023/06/12 14:08:05;;;;;;;0.98;0.90;;;;;;;;;;5066136;28;20047;-85
2023/06/12 14:10:31;;;;;;;4.97;1.55;;;;;;;;;;5052002;28;20024;-84
2023/06/12 14:12:57;;;;;;;2.22;1.38;;;;;;;;;;5052023;28;20081;-84
2023/06/12 14:15:23;;;;;;;2.13;1.60;;;;;;;;;;5082367;28;20365;-83
2023/06/12 14:17:48;;;;;;;0.93;0.90;;;;;;;;;;5052773;28;20056;-84
2023/06/12 14:20:15;;;;;;;1.05;0.75;;;;;;;;;;5064616;28;20028;-91
2023/06/12 14:22:43;;;;;;;5.57;1.90;;;;;;;;;;5063610;28;20036;-88
2023/06/12 14:25:09;;;;;;;0.52;0.52;;;;;;;;;;5088759;28;20115;-89
2023/06/12 14:27:38;;;;;;;1.27;0.90;;;;;;;;;;5070992;28;20116;-87
2023/06/12 14:30:05;;;;;;;1.10;1.00;;;;;;;;;;5070636;28;20051;-87
2023/06/12 14:32:30;;;;;;;1.30;0.90;;;;;;;;;;5059652;28;20496;-87
2023/06/12 14:34:56;;;;;;;1.80;1.30;;;;;;;;;;5070415;28;20028;-87
2023/06/12 14:37:21;;;;;;;1.98;1.35;;;;;;;;;;5051868;28;20054;-88
2023/06/12 14:39:47;;;;;;;1.80;0.52;;;;;;;;;;5060806;28;20127;-90
2023/06/12 14:42:13;;;;;;;0.93;0.80;;;;;;;;;;5065018;28;20038;-89
2023/06/12 14:44:38;;;;;;;0.75;0.75;;;;;;;;;;5049232;28;20025;-89
2023/06/12 14:47:04;;;;;;;3.30;1.10;;;;;;;;;;5057923;28;20029;-85
2023/06/12 14:49:30;;;;;;;0.77;0.77;;;;;;;;;;5070787;28;20162;-89
2023/06/12 14:51:55;;;;;;;0.40;0.40;;;;;;;;;;5065437;28;20036;-84
2023/06/12 14:54:20;;;;;;;1.20;0.95;;;;;;;;;;5067801;28;20031;-85
2023/06/12 14:56:46;;;;;;;1.13;0.77;;;;;;;;;;5061971;28;20028;-86
2023/06/12 14:59:11;;;;;;;0.32;0.30;;;;;;;;;;5064554;28;20024;-84
2023/06/12 15:01:37;;;;;;;1.35;0.90;;;;;;;;;;5061175;28;20499;-83
2023/06/12 15:04:02;;;;;;;4.68;1.38;;;;;;;;;;5066330;28;20039;-84
2023/06/12 15:06:28;;;;;;;0.60;0.40;;;;;;;;;;5063742;28;20025;-87
2023/06/12 15:08:53;;;;;;;0.80;0.65;;;;;;;;;;5069306;28;20025;-84
2023/06/12 15:11:18;;;;;;;0.95;0.70;;;;;;;;;;5051606;28;20089;-85
2023/06/12 15:13:44;;;;;;;1.83;1.02;;;;;;;;;;5050554;28;20411;-85